Time;durP1;ratioP1;P1;durP2;ratioP2;P2;SDS_P1;SDS_P2;PMS_P1;PMS_P2;Temp;Humidity;BMP_temperature;BMP_pressure;BME280_temperature;BME280_humidity;BME280_pressure;Samples;Min_cycle;Max_cycle;Signal;HPM_P1;HPM_P2
2024/01/24 00:00:55;;;;;;;0.85;0.32;;;11.20;99.90;;;11.23;100.00;101188.97;5231053;28;20049;-47
2024/01/24 00:03:27;;;;;;;0.43;0.20;;;11.20;99.90;;;11.25;100.00;101179.47;5239830;28;20045;-47
2024/01/24 00:05:59;;;;;;;0.77;0.38;;;11.20;99.90;;;11.22;100.00;101176.75;5241488;28;20052;-46
2024/01/24 00:08:34;;;;;;;0.13;0.13;;;11.20;99.90;;;11.22;100.00;101187.19;5246365;28;20068;-47
2024/01/24 00:11:06;;;;;;;0.93;0.30;;;11.20;99.90;;;11.25;100.00;101187.28;5260030;28;20491;-47
2024/01/24 00:13:39;;;;;;;0.28;0.28;;;11.20;99.90;;;11.33;100.00;101175.41;5243534;28;20407;-47
2024/01/24 00:16:11;;;;;;;0.20;0.20;;;11.20;99.90;;;11.32;100.00;101171.03;5238321;28;20047;-47
2024/01/24 00:18:44;;;;;;;0.40;0.40;;;11.20;99.90;;;11.38;100.00;101168.66;5234906;28;20049;-48
2024/01/24 00:21:16;;;;;;;0.30;0.30;;;11.30;99.90;;;11.40;100.00;101161.75;5242549;28;20048;-47
2024/01/24 00:23:50;;;;;;;0.15;0.15;;;11.30;99.90;;;11.49;100.00;101162.13;5240886;28;20053;-47
2024/01/24 00:26:22;;;;;;;0.32;0.15;;;11.30;99.90;;;11.49;100.00;101174.28;5241026;28;20052;-46
2024/01/24 00:28:55;;;;;;;1.55;0.52;;;11.40;99.90;;;11.46;100.00;101172.44;5236518;28;20057;-47
2024/01/24 00:31:27;;;;;;;0.13;0.13;;;11.40;99.90;;;11.46;100.00;101172.44;5245121;28;20049;-45
2024/01/24 00:34:00;;;;;;;0.20;0.20;;;11.40;99.90;;;11.44;100.00;101184.56;5239408;28;20060;-46
2024/01/24 00:36:32;;;;;;;0.20;0.20;;;11.40;99.90;;;11.43;100.00;101185.38;5257261;28;20048;-47
2024/01/24 00:39:07;;;;;;;0.40;0.40;;;11.40;99.90;;;11.42;100.00;101181.00;5229374;28;20052;-48
2024/01/24 00:41:42;;;;;;;0.43;0.32;;;11.40;99.90;;;11.45;100.00;101183.72;5244335;28;20629;-46
2024/01/24 00:44:15;;;;;;;0.32;0.32;;;11.40;99.90;;;11.44;100.00;101184.56;5242359;28;20540;-46
2024/01/24 00:46:48;;;;;;;0.35;0.35;;;11.40;99.90;;;11.45;100.00;101170.66;5243710;28;20419;-47
2024/01/24 00:49:20;;;;;;;0.20;0.20;;;11.40;99.90;;;11.47;100.00;101163.75;5250820;28;20534;-47
2024/01/24 00:51:53;;;;;;;0.85;0.30;;;11.40;99.90;;;11.50;100.00;101163.00;5241227;28;20052;-47
2024/01/24 00:54:26;;;;;;;0.90;0.30;;;11.40;99.90;;;11.53;100.00;101142.22;5244218;28;20415;-48
2024/01/24 00:57:02;;;;;;;0.22;0.20;;;11.40;99.90;;;11.60;100.00;101139.88;5238552;28;20040;-46
2024/01/24 00:59:34;;;;;;;0.65;0.38;;;11.50;99.90;;;11.60;100.00;101124.22;5244174;28;20045;-47
2024/01/24 01:02:07;;;;;;;0.22;0.22;;;11.50;99.90;;;11.62;100.00;101122.56;5231227;28;20106;-47
2024/01/24 01:04:39;;;;;;;2.63;0.55;;;11.60;99.90;;;11.67;100.00;101128.84;5240128;28;20053;-47
2024/01/24 01:07:12;;;;;;;1.05;0.40;;;11.60;99.90;;;11.66;100.00;101137.50;5258988;28;20503;-46
2024/01/24 01:09:46;;;;;;;0.63;0.60;;;11.60;99.90;;;11.67;100.00;101136.69;5237518;28;20045;-46
2024/01/24 01:12:19;;;;;;;1.23;0.43;;;11.60;99.90;;;11.67;100.00;101128.84;5258902;28;20499;-46
2024/01/24 01:14:54;;;;;;;0.88;0.40;;;11.60;99.90;;;11.65;100.00;101143.56;5243143;28;20040;-47
2024/01/24 01:17:27;;;;;;;0.93;0.50;;;11.60;99.90;;;11.65;100.00;101154.00;5245376;28;20041;-45
2024/01/24 01:19:59;;;;;;;0.20;0.20;;;11.60;99.90;;;11.67;100.00;101146.22;5234430;28;20561;-47
2024/01/24 01:22:32;;;;;;;0.65;0.28;;;11.70;99.90;;;11.73;100.00;101140.31;5236502;28;20041;-46
2024/01/24 01:25:06;;;;;;;0.20;0.20;;;11.60;99.90;;;11.76;100.00;101148.28;5237178;28;20048;-46
2024/01/24 01:27:38;;;;;;;0.75;0.47;;;11.70;99.90;;;11.76;100.00;101135.22;5239650;28;20045;-47
2024/01/24 01:30:12;;;;;;;2.83;0.43;;;11.70;99.90;;;11.78;100.00;101138.78;5242709;28;20406;-46
2024/01/24 01:32:44;;;;;;;0.30;0.28;;;11.70;99.90;;;11.81;100.00;101136.31;5244104;28;20052;-47
2024/01/24 01:35:17;;;;;;;1.35;0.43;;;11.70;99.90;;;11.83;100.00;101148.59;5235111;28;20052;-47
2024/01/24 01:37:49;;;;;;;0.60;0.35;;;11.70;99.90;;;11.80;100.00;101153.69;5240367;28;20518;-46
2024/01/24 01:40:23;;;;;;;0.77;0.50;;;11.70;99.90;;;11.82;100.00;101143.31;5238418;28;20056;-48
2024/01/24 01:42:56;;;;;;;2.38;0.50;;;11.70;99.90;;;11.83;100.00;101155.53;5237477;28;20052;-47
2024/01/24 01:45:28;;;;;;;0.30;0.30;;;11.70;99.90;;;11.86;100.00;101159.13;5235012;28;20040;-47
2024/01/24 01:48:01;;;;;;;0.90;0.50;;;11.80;99.90;;;11.89;100.00;101159.25;5241196;28;20053;-47
2024/01/24 01:50:34;;;;;;;0.35;0.32;;;11.80;99.90;;;11.93;100.00;101152.41;5244048;28;20406;-47
2024/01/24 01:53:08;;;;;;;2.90;0.50;;;11.80;99.90;;;12.06;100.00;101131.13;5231666;28;20056;-47
2024/01/24 01:55:42;;;;;;;1.38;0.40;;;11.90;99.90;;;12.08;100.00;101110.25;5235342;28;20044;-48
2024/01/24 01:58:16;;;;;;;0.50;0.40;;;11.90;99.90;;;12.26;100.00;101108.25;5251930;28;20414;-47
2024/01/24 02:00:50;;;;;;;1.33;0.43;;;12.10;99.90;;;12.30;100.00;101093.53;5242421;28;20053;-47
2024/01/24 02:03:23;;;;;;;1.75;0.35;;;12.10;99.90;;;12.44;100.00;101073.94;5243521;28;20044;-47
2024/01/24 02:05:55;;;;;;;0.70;0.57;;;12.20;99.90;;;12.44;100.00;101060.88;5237864;28;20044;-47
2024/01/24 02:08:27;;;;;;;2.40;0.80;;;12.30;99.90;;;12.48;100.00;101047.06;5247696;28;20053;-47
2024/01/24 02:11:02;;;;;;;0.50;0.40;;;12.30;99.90;;;12.50;100.00;101046.25;5230054;28;20503;-48
2024/01/24 02:13:34;;;;;;;1.02;0.52;;;12.40;99.90;;;12.46;100.00;101054.00;5253525;28;20137;-48
2024/01/24 02:16:10;;;;;;;0.70;0.70;;;12.40;99.90;;;12.45;100.00;101042.66;5237158;28;20085;-47
2024/01/24 02:18:42;;;;;;;3.40;0.55;;;12.30;99.90;;;12.38;100.00;101050.22;5248696;28;20048;-47
2024/01/24 02:21:18;;;;;;;0.52;0.52;;;12.30;99.90;;;12.39;100.00;101062.47;5241020;28;20503;-46
2024/01/24 02:23:50;;;;;;;2.13;0.50;;;12.30;99.90;;;12.36;100.00;101050.19;5226828;28;20056;-47
2024/01/24 02:26:24;;;;;;;1.67;0.80;;;12.30;99.90;;;12.31;100.00;101053.50;5245544;28;20053;-47
2024/01/24 02:28:56;;;;;;;1.08;0.57;;;12.20;99.90;;;12.38;100.00;101066.78;5236325;28;20506;-49
2024/01/24 02:31:29;;;;;;;0.80;0.60;;;12.30;99.90;;;12.42;100.00;101062.56;5256268;28;20047;-48
2024/01/24 02:34:02;;;;;;;0.30;0.30;;;12.30;99.90;;;12.39;100.00;101083.41;5240747;28;20051;-47
2024/01/24 02:36:35;;;;;;;0.50;0.50;;;12.30;99.90;;;12.37;100.00;101082.44;5234641;28;20048;-47
2024/01/24 02:39:08;;;;;;;0.32;0.32;;;12.30;99.90;;;12.39;100.00;101070.34;5241778;28;20411;-47
2024/01/24 02:41:42;;;;;;;0.98;0.70;;;12.30;99.90;;;12.46;100.00;101077.53;5234913;28;20056;-47
2024/01/24 02:44:15;;;;;;;2.35;0.40;;;12.30;99.90;;;12.49;100.00;101075.00;5241778;28;20059;-47
2024/01/24 02:46:48;;;;;;;0.57;0.50;;;12.40;99.90;;;12.50;100.00;101068.91;5236421;28;20045;-48
2024/01/24 02:49:20;;;;;;;0.38;0.38;;;12.40;99.90;;;12.48;100.00;101062.75;5246733;28;20553;-48
2024/01/24 02:51:52;;;;;;;1.42;0.40;;;12.40;99.90;;;12.49;100.00;101043.63;5233960;28;20037;-48
2024/01/24 02:54:25;;;;;;;2.65;0.82;;;12.40;99.90;;;12.51;100.00;101052.38;5230265;28;20415;-47
2024/01/24 02:56:59;;;;;;;0.40;0.40;;;12.40;99.90;;;12.52;100.00;101048.03;5230206;28;20048;-47
2024/01/24 02:59:32;;;;;;;0.98;0.55;;;12.40;99.90;;;12.51;100.00;101049.75;5244778;28;20045;-47
2024/01/24 03:02:04;;;;;;;1.10;0.52;;;12.40;99.90;;;12.53;100.00;101045.50;5243794;28;20053;-49
2024/01/24 03:04:37;;;;;;;3.35;0.70;;;12.40;99.90;;;12.55;100.00;101037.69;5226061;28;20056;-47
2024/01/24 03:07:10;;;;;;;1.42;0.60;;;12.40;99.90;;;12.61;100.00;101033.53;5238040;28;20128;-46
2024/01/24 03:09:42;;;;;;;1.60;0.50;;;12.50;99.90;;;12.62;100.00;101023.97;5235793;28;20052;-48
2024/01/24 03:12:16;;;;;;;0.70;0.40;;;12.50;99.90;;;12.66;100.00;101031.94;5240933;28;20489;-46
2024/01/24 03:14:49;;;;;;;0.47;0.47;;;12.60;99.90;;;12.70;100.00;101028.56;5223976;28;20266;-48
2024/01/24 03:17:21;;;;;;;0.77;0.45;;;12.60;99.90;;;12.67;100.00;101012.78;5239746;28;20041;-48
2024/01/24 03:19:54;;;;;;;0.70;0.50;;;12.60;99.90;;;12.71;100.00;101022.53;5234030;28;20118;-46
2024/01/24 03:22:27;;;;;;;0.98;0.50;;;12.60;99.90;;;12.80;100.00;101010.53;5240643;28;20068;-48
2024/01/24 03:24:59;;;;;;;0.40;0.40;;;12.60;99.90;;;12.83;100.00;101026.31;5242303;28;20045;-47
2024/01/24 03:27:33;;;;;;;0.47;0.45;;;12.70;99.90;;;12.87;100.00;101017.72;5242216;28;20411;-49
2024/01/24 03:30:07;;;;;;;1.55;0.30;;;12.70;99.90;;;12.85;100.00;101012.47;5233880;28;20053;-47
2024/01/24 03:32:39;;;;;;;1.85;0.30;;;12.70;99.90;;;12.83;100.00;101005.38;5230219;28;20466;-47
2024/01/24 03:35:11;;;;;;;0.43;0.43;;;12.70;99.90;;;12.84;100.00;101015.00;5252235;28;20053;-47
2024/01/24 03:37:44;;;;;;;0.30;0.30;;;12.70;99.90;;;12.82;100.00;101009.72;5242525;28;20044;-47
2024/01/24 03:40:16;;;;;;;0.38;0.32;;;12.70;99.90;;;12.87;100.00;101009.88;5241316;28;20090;-47
2024/01/24 03:42:50;;;;;;;1.23;0.22;;;12.80;99.90;;;12.86;100.00;100992.41;5240849;28;20410;-49
2024/01/24 03:45:25;;;;;;;0.40;0.40;;;12.70;99.90;;;12.87;100.00;101007.25;5233022;28;20045;-47
2024/01/24 03:47:58;;;;;;;0.93;0.32;;;12.80;99.90;;;12.89;100.00;100995.97;5237628;28;20435;-47
2024/01/24 03:50:30;;;;;;;0.47;0.47;;;12.80;99.90;;;12.94;100.00;100997.00;5238899;28;20525;-47
2024/01/24 03:53:03;;;;;;;0.75;0.65;;;12.80;99.90;;;12.96;100.00;100989.19;5233432;28;20056;-47
2024/01/24 03:55:36;;;;;;;0.52;0.30;;;12.80;99.90;;;12.95;100.00;100985.69;5245360;28;20040;-46
2024/01/24 03:58:10;;;;;;;0.20;0.20;;;12.80;99.90;;;12.94;100.00;100989.16;5245315;28;20061;-49
2024/01/24 04:00:42;;;;;;;0.65;0.35;;;12.80;99.90;;;12.98;100.00;100998.88;5235881;28;20392;-47
2024/01/24 04:03:14;;;;;;;0.20;0.20;;;12.80;99.90;;;13.00;100.00;101005.03;5243606;28;20503;-46
2024/01/24 04:05:47;;;;;;;0.20;0.20;;;12.90;99.90;;;12.99;100.00;101007.63;5262605;28;20055;-48
2024/01/24 04:08:19;;;;;;;0.20;0.20;;;12.90;99.90;;;13.03;100.00;101014.69;5242070;28;20585;-47
2024/01/24 04:10:52;;;;;;;0.20;0.20;;;12.90;99.90;;;13.02;100.00;101005.06;5243490;28;20478;-47
2024/01/24 04:13:29;;;;;;;0.30;0.30;;;12.90;99.90;;;13.06;100.00;101001.72;5245251;28;20041;-47
2024/01/24 04:16:01;;;;;;;0.30;0.30;;;12.90;99.90;;;13.06;100.00;100996.47;5244783;28;20414;-47
2024/01/24 04:18:34;;;;;;;0.40;0.30;;;12.90;99.90;;;13.04;100.00;101000.78;5245258;28;20052;-47
2024/01/24 04:21:06;;;;;;;1.75;0.22;;;12.90;99.90;;;13.13;100.00;100998.41;5253539;28;20511;-47
2024/01/24 04:23:39;;;;;;;0.98;0.50;;;13.00;99.90;;;13.11;100.00;101010.59;5237954;28;20053;-48
2024/01/24 04:26:12;;;;;;;0.13;0.13;;;13.00;99.90;;;13.08;100.00;101022.69;5237669;28;20049;-48
2024/01/24 04:28:45;;;;;;;0.20;0.20;;;13.00;99.90;;;13.08;100.00;101020.06;5242348;28;20522;-47
2024/01/24 04:31:18;;;;;;;0.82;0.20;;;13.00;99.90;;;13.08;100.00;101028.81;5245180;28;20056;-48
2024/01/24 04:33:51;;;;;;;0.20;0.20;;;13.00;99.90;;;13.18;100.00;101035.19;5246673;28;20136;-47
2024/01/24 04:36:23;;;;;;;0.20;0.20;;;13.00;99.90;;;13.17;100.00;101034.31;5233375;28;20144;-47
2024/01/24 04:38:55;;;;;;;0.20;0.20;;;13.00;99.90;;;13.16;100.00;101040.38;5243658;28;20056;-47
2024/01/24 04:41:28;;;;;;;0.20;0.10;;;13.10;99.90;;;13.16;100.00;101027.28;5239720;28;20060;-47
2024/01/24 04:44:01;;;;;;;0.28;0.22;;;13.10;99.90;;;13.18;100.00;101046.56;5244744;28;20396;-46
2024/01/24 04:46:35;;;;;;;0.20;0.20;;;13.10;99.90;;;13.20;100.00;101044.88;5237756;28;20123;-47
2024/01/24 04:49:08;;;;;;;0.20;0.20;;;13.10;99.90;;;13.24;100.00;101038.91;5244484;28;20052;-48
2024/01/24 04:51:41;;;;;;;0.10;0.10;;;13.10;99.90;;;13.28;100.00;101030.28;5234576;28;20082;-48
2024/01/24 04:54:13;;;;;;;0.20;0.20;;;13.10;99.90;;;13.34;100.00;101054.84;5235832;28;20091;-48
2024/01/24 04:56:46;;;;;;;0.10;0.10;;;13.20;99.90;;;13.36;100.00;101054.03;5234071;28;20052;-47
2024/01/24 04:59:19;;;;;;;0.20;0.20;;;13.30;99.90;;;13.36;100.00;101074.97;5238941;28;20056;-47
2024/01/24 05:01:53;;;;;;;0.10;0.10;;;13.20;99.90;;;13.37;100.00;101044.47;5225427;28;20070;-46
2024/01/24 05:04:25;;;;;;;0.20;0.20;;;13.20;99.90;;;13.38;100.00;101082.91;5238862;28;20059;-47
2024/01/24 05:06:58;;;;;;;0.22;0.20;;;13.30;99.90;;;13.47;100.00;101093.63;5236894;28;20045;-47
2024/01/24 05:09:30;;;;;;;0.55;0.22;;;13.30;99.90;;;13.50;100.00;101070.16;5244145;28;20076;-46
2024/01/24 05:12:02;;;;;;;0.38;0.20;;;13.40;99.90;;;13.50;100.00;101064.91;5243636;28;20079;-48
2024/01/24 05:14:36;;;;;;;1.23;0.20;;;13.40;99.90;;;13.47;100.00;101059.56;5231857;28;20056;-46
2024/01/24 05:17:08;;;;;;;0.25;0.25;;;13.40;99.90;;;13.46;100.00;101070.91;5248490;28;20041;-48
2024/01/24 05:19:44;;;;;;;0.43;0.20;;;13.40;99.90;;;13.49;100.00;101065.72;5229732;28;20053;-47
2024/01/24 05:22:16;;;;;;;1.58;0.40;;;13.40;99.90;;;13.50;100.00;101104.19;5234377;28;20052;-47
2024/01/24 05:24:49;;;;;;;2.20;0.40;;;13.40;99.90;;;13.46;100.00;101118.03;5234172;28;20049;-48
2024/01/24 05:27:21;;;;;;;0.20;0.20;;;13.40;99.90;;;13.33;100.00;101113.31;5238237;28;20033;-48
2024/01/24 05:29:55;;;;;;;0.55;0.30;;;13.30;99.90;;;13.24;100.00;101117.44;5260587;28;20040;-47
2024/01/24 05:32:27;;;;;;;0.25;0.22;;;13.20;99.90;;;13.16;100.00;101108.41;5243458;28;20049;-48
2024/01/24 05:34:59;;;;;;;0.30;0.30;;;13.20;99.90;;;13.09;100.00;101109.09;5243697;28;20086;-47
2024/01/24 05:37:32;;;;;;;0.77;0.30;;;13.00;99.90;;;13.06;100.00;101106.38;5239835;28;20071;-47
2024/01/24 05:40:09;;;;;;;0.15;0.15;;;13.00;99.90;;;12.98;100.00;101110.50;5239445;28;20403;-47
2024/01/24 05:42:42;;;;;;;1.58;0.45;;;13.00;99.90;;;12.95;100.00;101110.41;5251917;28;20040;-47
2024/01/24 05:45:16;;;;;;;0.40;0.40;;;12.90;99.90;;;12.95;100.00;101129.59;5239156;28;20041;-47
2024/01/24 05:47:48;;;;;;;1.23;0.30;;;12.90;99.90;;;12.95;100.00;101147.03;5240497;28;20052;-48
2024/01/24 05:50:21;;;;;;;0.68;0.68;;;12.90;99.90;;;12.90;100.00;101148.63;5237091;28;20044;-47
2024/01/24 05:52:53;;;;;;;0.30;0.30;;;12.90;99.90;;;12.86;100.00;101167.69;5239348;28;20060;-48
2024/01/24 05:55:25;;;;;;;0.52;0.50;;;12.90;99.90;;;12.82;100.00;101176.28;5231036;28;20411;-48
2024/01/24 05:57:58;;;;;;;0.52;0.50;;;12.80;99.90;;;12.76;100.00;101167.38;5238110;28;20423;-47
2024/01/24 06:00:31;;;;;;;0.40;0.40;;;12.80;99.90;;;12.81;100.00;101133.53;5238473;28;20060;-46
2024/01/24 06:03:04;;;;;;;5.38;0.82;;;12.80;99.90;;;12.79;100.00;101131.72;5237705;28;20053;-47
2024/01/24 06:05:40;;;;;;;1.75;0.40;;;12.80;99.90;;;12.78;100.00;101130.84;5241515;28;20060;-47
2024/01/24 06:08:12;;;;;;;1.50;0.40;;;12.80;99.90;;;12.79;100.00;101168.34;5228168;28;20033;-47
2024/01/24 06:10:45;;;;;;;0.60;0.30;;;12.80;99.90;;;12.81;100.00;101157.09;5231722;28;20503;-47
2024/01/24 06:13:17;;;;;;;1.80;0.57;;;12.80;99.90;;;12.77;100.00;101152.56;5243258;28;20045;-47
2024/01/24 06:15:54;;;;;;;0.82;0.38;;;12.80;99.90;;;12.77;100.00;101156.09;5245193;28;20577;-47
2024/01/24 06:18:26;;;;;;;1.05;0.43;;;12.80;99.90;;;12.76;100.00;101141.22;5251807;28;20511;-47
2024/01/24 06:20:59;;;;;;;4.03;0.70;;;12.70;99.90;;;12.68;100.00;101134.88;5243108;28;20044;-48
2024/01/24 06:23:35;;;;;;;3.63;0.70;;;12.70;99.90;;;12.59;100.00;101150.28;5259490;28;20060;-48
2024/01/24 06:26:07;;;;;;;4.05;0.70;;;12.60;99.90;;;12.54;100.00;101162.31;5249346;28;20407;-49
2024/01/24 06:28:40;;;;;;;0.57;0.47;;;12.60;99.90;;;12.52;100.00;101184.00;5239708;28;20048;-46
2024/01/24 06:31:15;;;;;;;1.40;0.50;;;12.50;99.90;;;12.51;100.00;101206.66;5236836;28;20063;-47
2024/01/24 06:33:48;;;;;;;0.82;0.50;;;12.50;99.90;;;12.52;100.00;101216.31;5242905;28;20067;-48
2024/01/24 06:36:20;;;;;;;2.45;0.70;;;12.50;99.90;;;12.54;100.00;101203.28;5243064;28;20052;-47
2024/01/24 06:38:53;;;;;;;3.83;1.05;;;12.50;99.90;;;12.59;100.00;101206.94;5235640;28;20076;-48
2024/01/24 06:41:25;;;;;;;7.82;1.00;;;12.50;99.90;;;12.65;100.00;101223.72;5244581;28;20040;-47
2024/01/24 06:43:58;;;;;;;4.07;0.80;;;12.60;99.90;;;12.66;100.00;101225.50;5235997;28;20053;-48
2024/01/24 06:46:31;;;;;;;2.58;0.77;;;12.60;99.90;;;12.68;100.00;101252.59;5237092;28;20053;-46
2024/01/24 06:49:04;;;;;;;3.83;0.93;;;12.60;99.90;;;12.73;100.00;101240.56;5242850;28;20518;-47
2024/01/24 06:51:40;;;;;;;7.55;1.02;;;12.70;99.90;;;12.73;100.00;101227.47;5232517;28;20056;-47
2024/01/24 06:54:13;;;;;;;5.28;1.38;;;12.70;99.90;;;12.72;100.00;101256.22;5242849;28;20036;-47
2024/01/24 06:56:45;;;;;;;4.28;1.00;;;12.70;99.90;;;12.67;100.00;101248.19;5239055;28;20036;-48
2024/01/24 06:59:18;;;;;;;5.68;1.50;;;12.60;99.90;;;12.66;100.00;101249.03;5237107;28;20041;-48
2024/01/24 07:01:52;;;;;;;8.00;1.05;;;12.70;99.90;;;12.65;100.00;101276.03;5236984;28;20048;-47
2024/01/24 07:04:24;;;;;;;7.32;1.63;;;12.70;99.90;;;12.67;100.00;101279.59;5242521;28;20045;-47
2024/01/24 07:06:56;;;;;;;5.85;1.27;;;12.70;99.90;;;12.68;100.00;101278.75;5244117;28;20522;-46
2024/01/24 07:09:29;;;;;;;4.43;0.80;;;12.70;99.90;;;12.59;100.00;101262.75;5229257;28;20057;-46
2024/01/24 07:12:02;;;;;;;6.82;1.30;;;12.70;99.90;;;12.59;100.00;101280.16;5240574;28;20406;-47
2024/01/24 07:14:34;;;;;;;6.28;1.10;;;12.60;99.90;;;12.55;100.00;101292.22;5242350;28;20036;-47
2024/01/24 07:17:08;;;;;;;4.80;1.10;;;12.60;99.90;;;12.54;100.00;101273.88;5232831;28;20068;-47
2024/01/24 07:19:44;;;;;;;10.95;1.15;;;12.60;99.90;;;12.56;100.00;101293.13;5234369;28;20067;-46
2024/01/24 07:22:16;;;;;;;6.60;1.45;;;12.60;99.90;;;12.55;100.00;101315.78;5257781;28;20052;-46
2024/01/24 07:24:49;;;;;;;9.13;1.00;;;12.50;99.90;;;12.57;100.00;101303.63;5246275;28;20139;-47
2024/01/24 07:27:21;;;;;;;5.47;1.10;;;12.60;99.90;;;12.59;100.00;101329.84;5242320;28;20048;-46
2024/01/24 07:29:54;;;;;;;4.15;0.98;;;12.60;99.90;;;12.58;100.00;101331.56;5236288;28;20407;-47
2024/01/24 07:32:28;;;;;;;4.95;1.23;;;12.60;99.90;;;12.55;100.00;101341.03;5245997;28;20044;-46
2024/01/24 07:35:01;;;;;;;7.53;1.33;;;12.60;99.90;;;12.57;100.00;101344.59;5238937;28;20048;-46
2024/01/24 07:37:34;;;;;;;3.70;0.80;;;12.60;99.90;;;12.56;100.00;101354.16;5241021;28;20055;-46
2024/01/24 07:40:10;;;;;;;8.23;1.30;;;12.60;99.90;;;12.55;100.00;101352.38;5245932;28;20044;-47
2024/01/24 07:42:43;;;;;;;5.15;1.00;;;12.60;99.90;;;12.53;100.00;101354.06;5241618;28;20053;-47
2024/01/24 07:45:19;;;;;;;4.95;0.73;;;12.60;99.90;;;12.53;100.00;101359.28;5236340;28;20072;-47
2024/01/24 07:47:53;;;;;;;7.75;1.65;;;12.60;99.90;;;12.50;100.00;101354.81;5241878;28;20127;-46
2024/01/24 07:50:27;;;;;;;7.13;1.13;;;12.50;99.90;;;12.50;100.00;101353.94;5239125;28;20060;-46
2024/01/24 07:52:59;;;;;;;9.80;1.50;;;12.50;99.90;;;12.55;100.00;101360.22;5235766;28;20552;-46
2024/01/24 07:55:32;;;;;;;4.47;1.08;;;12.50;99.90;;;12.52;100.00;101365.38;5245167;28;20044;-45
2024/01/24 07:58:04;;;;;;;8.88;1.38;;;12.50;99.90;;;12.52;100.00;101367.06;5241754;28;20049;-46
2024/01/24 08:00:37;;;;;;;15.20;1.98;;;12.50;99.90;;;12.50;100.00;101359.16;5242228;28;20079;-46
2024/01/24 08:03:10;;;;;;;5.18;1.02;;;12.50;99.90;;;12.47;100.00;101369.53;5252799;28;20453;-47
2024/01/24 08:05:46;;;;;;;10.23;1.42;;;12.50;99.90;;;12.47;100.00;101385.22;5245064;28;20053;-46
2024/01/24 08:08:18;;;;;;;9.77;1.27;;;12.40;99.90;;;12.48;100.00;101407.91;5240561;28;20036;-47
2024/01/24 08:10:51;;;;;;;7.10;1.20;;;12.50;99.90;;;12.49;100.00;101402.75;5244700;28;20043;-47
2024/01/24 08:13:23;;;;;;;7.95;1.30;;;12.50;99.90;;;12.49;100.00;101407.06;5244026;28;20048;-46
2024/01/24 08:15:57;;;;;;;15.93;1.60;;;12.40;99.90;;;12.45;100.00;101392.09;5251287;28;20048;-46
2024/01/24 08:18:32;;;;;;;11.95;2.00;;;12.40;99.90;;;12.42;100.00;101374.59;5239528;28;20520;-46
2024/01/24 08:21:04;;;;;;;8.52;1.35;;;12.40;99.90;;;12.42;100.00;101376.31;5240122;28;20044;-46
2024/01/24 08:23:37;;;;;;;18.83;1.83;;;12.40;99.90;;;12.44;100.00;101409.50;5238217;28;20193;-46
2024/01/24 08:26:10;;;;;;;4.30;1.17;;;12.40;99.90;;;12.45;100.00;101407.78;5236520;28;20051;-46
2024/01/24 08:28:43;;;;;;;6.95;1.48;;;12.40;99.90;;;12.44;100.00;101416.47;5241654;28;20064;-46
2024/01/24 08:31:16;;;;;;;10.90;1.33;;;12.40;99.90;;;12.44;100.00;101403.41;5244987;28;20041;-47
2024/01/24 08:33:49;;;;;;;14.85;1.58;;;12.40;99.90;;;12.42;100.00;101428.59;5228319;28;20052;-47
2024/01/24 08:36:22;;;;;;;9.63;1.52;;;12.40;99.90;;;12.45;100.00;101427.00;5245716;28;20453;-46
2024/01/24 08:38:54;;;;;;;12.48;1.55;;;12.40;99.90;;;12.47;100.00;101427.94;5244195;28;20047;-47
2024/01/24 08:41:26;;;;;;;9.10;2.45;;;12.40;99.90;;;12.44;100.00;101429.53;5244662;28;20037;-47
2024/01/24 08:43:59;;;;;;;8.55;1.88;;;12.40;99.90;;;12.42;100.00;101446.91;5244622;28;20687;-47
2024/01/24 08:46:32;;;;;;;10.80;1.70;;;12.40;99.90;;;12.42;100.00;101452.13;5244196;28;20051;-47
2024/01/24 08:49:06;;;;;;;6.70;1.30;;;12.40;99.90;;;12.46;100.00;101461.91;5243249;28;20051;-46
2024/01/24 08:51:38;;;;;;;12.85;1.65;;;12.40;99.90;;;12.48;100.00;101462.84;5238766;28;20098;-45
2024/01/24 08:54:12;;;;;;;11.18;1.58;;;12.50;99.90;;;12.48;100.00;101465.44;5240954;28;20503;-46
2024/01/24 08:56:44;;;;;;;12.13;2.03;;;12.50;99.90;;;12.46;100.00;101456.66;5240101;28;20060;-46
2024/01/24 08:59:16;;;;;;;12.20;1.80;;;12.40;99.90;;;12.46;100.00;101472.34;5237375;28;20056;-46
2024/01/24 09:01:49;;;;;;;7.22;1.67;;;12.40;99.90;;;12.44;100.00;101490.56;5243944;28;20443;-47
2024/01/24 09:04:23;;;;;;;15.30;1.83;;;12.40;99.90;;;12.44;100.00;101469.66;5243126;28;20041;-47
2024/01/24 09:06:55;;;;;;;12.30;1.80;;;12.40;99.90;;;12.39;100.00;101480.81;5243537;28;20511;-47
2024/01/24 09:09:30;;;;;;;12.15;1.48;;;12.40;99.90;;;12.40;100.00;101478.25;5244079;28;20082;-46
2024/01/24 09:12:03;;;;;;;8.80;2.10;;;12.40;99.90;;;12.37;100.00;101487.69;5237446;28;20041;-46
2024/01/24 09:14:36;;;;;;;13.63;2.55;;;12.40;99.90;;;12.39;100.00;101478.19;5237061;28;20049;-46
2024/01/24 09:17:08;;;;;;;12.35;1.85;;;12.30;99.90;;;12.43;100.00;101487.91;5230695;28;20056;-45
2024/01/24 09:19:42;;;;;;;7.88;1.52;;;12.40;99.90;;;12.43;100.00;101490.53;5256032;28;20044;-47
2024/01/24 09:22:14;;;;;;;13.07;1.67;;;12.30;99.90;;;12.45;100.00;101494.06;5248857;28;20066;-47
2024/01/24 09:24:47;;;;;;;11.18;1.65;;;12.40;99.90;;;12.41;100.00;101492.19;5244067;28;20094;-45
2024/01/24 09:27:19;;;;;;;14.43;1.83;;;12.40;99.90;;;12.43;100.00;101483.56;5243855;28;20495;-47
2024/01/24 09:29:55;;;;;;;15.13;1.83;;;12.40;99.90;;;12.47;100.00;101500.28;5227723;28;20462;-46
2024/01/24 09:32:27;;;;;;;8.43;2.13;;;12.40;99.90;;;12.44;100.00;101500.16;5236178;28;20052;-46
2024/01/24 09:35:01;;;;;;;13.18;2.10;;;12.40;99.90;;;12.43;100.00;101494.03;5244080;28;20062;-46
2024/01/24 09:37:34;;;;;;;11.65;1.88;;;12.40;99.90;;;12.43;100.00;101508.81;5239183;28;20040;-46
2024/01/24 09:40:08;;;;;;;9.73;1.65;;;12.40;99.90;;;12.48;100.00;101494.22;5238414;28;20076;-48
2024/01/24 09:42:44;;;;;;;11.90;1.92;;;12.40;99.90;;;12.48;100.00;101531.72;5239018;28;20082;-48
2024/01/24 09:45:17;;;;;;;11.75;1.75;;;12.40;99.90;;;12.52;100.00;101535.34;5237986;28;20041;-45
2024/01/24 09:47:52;;;;;;;9.27;1.65;;;12.40;99.90;;;12.54;100.00;101541.53;5238328;28;20139;-46
2024/01/24 09:50:26;;;;;;;6.05;1.55;;;12.50;99.90;;;12.55;100.00;101511.03;5235830;28;20059;-45
2024/01/24 09:53:00;;;;;;;16.38;1.75;;;12.50;99.90;;;12.51;100.00;101533.53;5241657;28;20056;-45
2024/01/24 09:55:34;;;;;;;15.82;1.83;;;12.40;99.90;;;12.54;100.00;101512.75;5235459;28;20052;-46
2024/01/24 09:58:06;;;;;;;10.82;1.63;;;12.50;99.90;;;12.61;100.00;101550.50;5243362;28;20089;-46
2024/01/24 10:00:38;;;;;;;11.05;1.88;;;12.50;99.90;;;12.67;100.00;101546.38;5243213;28;20056;-46
2024/01/24 10:03:11;;;;;;;9.75;1.52;;;12.60;99.90;;;12.68;100.00;101563.88;5255251;28;20052;-46
2024/01/24 10:05:47;;;;;;;9.73;1.38;;;12.60;99.90;;;12.77;99.66;101585.13;5241597;28;20430;-48
2024/01/24 10:08:19;;;;;;;15.93;1.88;;;12.60;99.90;;;12.74;98.34;101585.03;5238821;28;20226;-47
2024/01/24 10:10:52;;;;;;;10.32;1.27;;;12.70;99.90;;;12.73;98.38;101570.16;5238953;28;20166;-48
2024/01/24 10:13:26;;;;;;;9.88;1.90;;;12.70;99.90;;;12.71;98.81;101587.53;5244180;28;20040;-47
2024/01/24 10:16:04;;;;;;;12.75;2.13;;;12.70;99.90;;;12.76;99.04;101593.81;5235570;28;20080;-47
2024/01/24 10:18:36;;;;;;;9.57;1.58;;;12.70;99.90;;;12.76;99.31;101583.34;5226706;28;20051;-47
2024/01/24 10:21:10;;;;;;;11.98;1.65;;;12.70;99.90;;;12.76;99.65;101582.47;5222491;28;20193;-47
2024/01/24 10:23:42;;;;;;;11.00;1.92;;;12.70;99.90;;;12.75;99.60;101592.03;5230906;28;20060;-46
2024/01/24 10:26:16;;;;;;;13.55;2.17;;;12.70;99.90;;;12.73;99.97;101588.47;5237823;28;20072;-46
2024/01/24 10:28:51;;;;;;;12.98;2.00;;;12.70;99.90;;;12.73;98.89;101609.41;5240135;28;20143;-46